createdAt,value
2019-01-17T00:00:26.110Z,9.55
2019-01-17T00:03:12.810Z,8.43
2019-01-17T00:06:16.362Z,8.53
2019-01-17T00:09:07.715Z,9.10
2019-01-17T00:12:04.883Z,9.37
2019-01-17T00:14:59.235Z,8.53
2019-01-17T00:17:50.710Z,9.37
2019-01-17T00:20:39.039Z,7.57
2019-01-17T00:23:30.127Z,6.53
2019-01-17T00:26:13.674Z,7.77
2019-01-17T00:29:00.399Z,6.57
2019-01-17T00:31:47.087Z,5.93
2019-01-17T00:34:42.384Z,7.40
2019-01-17T00:37:36.703Z,6.90
2019-01-17T00:40:30.720Z,8.43
2019-01-17T00:43:21.874Z,6.90
2019-01-17T00:46:25.423Z,6.37
2019-01-17T00:49:04.615Z,6.53
2019-01-17T00:51:50.023Z,6.80
2019-01-17T00:54:41.122Z,7.30
2019-01-17T00:57:27.035Z,6.90
2019-01-17T01:00:21.099Z,7.00
2019-01-17T01:02:59.475Z,6.93
2019-01-17T01:05:47.807Z,7.53
2019-01-17T01:08:36.119Z,8.10
2019-01-17T01:11:20.787Z,7.30
2019-01-17T01:14:03.139Z,7.47
2019-01-17T01:17:08.728Z,6.83
2019-01-17T01:20:08.834Z,6.93
2019-01-17T01:22:56.606Z,7.93
2019-01-17T01:25:36.107Z,8.10
2019-01-17T01:28:23.603Z,8.60
2019-01-17T01:31:14.923Z,8.43
2019-01-17T01:34:03.251Z,9.03
2019-01-17T01:36:51.602Z,7.83
2019-01-17T01:39:45.680Z,7.10
2019-01-17T01:42:21.779Z,7.70
2019-01-17T01:45:11.525Z,8.60
2019-01-17T01:48:12.040Z,8.10
2019-01-17T01:51:00.351Z,9.20
2019-01-17T01:53:29.726Z,7.87
2019-01-17T01:55:59.087Z,8.23
2019-01-17T01:58:28.478Z,8.40
2019-01-17T02:00:57.844Z,7.17
2019-01-17T02:03:27.214Z,6.53
2019-01-17T02:05:56.571Z,6.57
2019-01-17T02:08:25.954Z,6.37
2019-01-17T02:10:55.307Z,5.60
2019-01-17T02:13:24.699Z,6.03
2019-01-17T02:15:54.063Z,5.70
2019-01-17T02:18:23.430Z,6.23
2019-01-17T02:20:52.810Z,5.40
2019-01-17T02:23:22.447Z,6.30
2019-01-17T02:25:51.803Z,5.80
2019-01-17T02:28:21.159Z,5.37
2019-01-17T02:30:50.542Z,6.00
2019-01-17T02:33:19.887Z,4.80
2019-01-17T02:35:49.385Z,6.07
2019-01-17T02:38:18.743Z,4.27
2019-01-17T02:40:48.123Z,5.60
2019-01-17T02:43:17.484Z,4.90
2019-01-17T02:45:46.885Z,5.07
2019-01-17T02:48:16.236Z,8.03
2019-01-17T02:50:45.609Z,4.93
2019-01-17T02:53:14.958Z,4.87
2019-01-17T02:55:44.336Z,3.90
2019-01-17T02:58:13.683Z,4.83
2019-01-17T03:00:43.071Z,4.93
2019-01-17T03:03:12.427Z,5.00
2019-01-17T03:05:41.806Z,5.43
2019-01-17T03:08:11.155Z,4.80
2019-01-17T03:10:40.532Z,5.33
2019-01-17T03:13:09.880Z,5.27
2019-01-17T03:15:39.257Z,5.50
2019-01-17T03:18:08.606Z,3.80
2019-01-17T03:20:37.998Z,4.70
2019-01-17T03:23:07.352Z,6.70
2019-01-17T03:25:36.739Z,4.23
2019-01-17T03:28:06.086Z,4.03
2019-01-17T03:30:35.476Z,4.20
2019-01-17T03:33:04.810Z,4.00
2019-01-17T03:35:34.187Z,4.10
2019-01-17T03:38:03.588Z,3.77
2019-01-17T03:40:32.900Z,3.60
2019-01-17T03:43:02.247Z,4.07
2019-01-17T03:45:31.616Z,3.67
2019-01-17T03:48:00.995Z,4.27
2019-01-17T03:50:30.422Z,3.70
2019-01-17T03:52:59.736Z,3.60
2019-01-17T03:55:29.395Z,3.13
2019-01-17T03:57:58.763Z,2.90
2019-01-17T04:00:28.110Z,3.10
2019-01-17T04:02:57.477Z,3.17
2019-01-17T04:05:26.839Z,5.00
2019-01-17T04:07:56.199Z,5.30
2019-01-17T04:10:25.540Z,3.17
2019-01-17T04:12:54.910Z,3.70
2019-01-17T04:15:24.254Z,3.20
2019-01-17T04:17:53.667Z,3.67
2019-01-17T04:20:23.020Z,3.50
2019-01-17T04:22:52.431Z,3.60
2019-01-17T04:25:21.777Z,4.13
2019-01-17T04:27:51.139Z,2.77
2019-01-17T04:30:20.483Z,3.07
2019-01-17T04:32:49.858Z,3.23
2019-01-17T04:35:19.203Z,3.70
2019-01-17T04:37:48.584Z,4.30
2019-01-17T04:40:17.955Z,3.30
2019-01-17T04:42:47.319Z,3.53
2019-01-17T04:45:16.673Z,3.57
2019-01-17T04:47:46.076Z,2.57
2019-01-17T04:50:15.659Z,3.60
2019-01-17T04:52:45.035Z,2.90
2019-01-17T04:55:14.599Z,3.37
2019-01-17T04:57:44.138Z,2.60
2019-01-17T05:00:18.898Z,4.40
2019-01-17T05:02:48.568Z,3.13
2019-01-17T05:05:18.020Z,3.00
2019-01-17T05:07:47.420Z,2.97
2019-01-17T05:10:16.921Z,3.00
2019-01-17T05:12:46.297Z,3.00
2019-01-17T05:15:15.779Z,2.70
2019-01-17T05:17:45.139Z,3.13
2019-01-17T05:20:16.204Z,3.50
2019-01-17T05:22:45.583Z,2.67
2019-01-17T05:25:15.059Z,3.03
2019-01-17T05:27:44.419Z,2.13
2019-01-17T05:30:15.903Z,2.40
2019-01-17T05:32:45.260Z,2.87
2019-01-17T05:35:14.995Z,2.50
2019-01-17T05:37:44.365Z,4.40
2019-01-17T05:40:16.051Z,2.87
2019-01-17T05:42:45.407Z,2.90
2019-01-17T05:45:15.035Z,3.10
2019-01-17T05:47:44.409Z,2.53
2019-01-17T05:50:14.761Z,2.63
2019-01-17T05:52:44.231Z,2.00
2019-01-17T05:55:19.687Z,2.63
2019-01-17T05:57:44.623Z,2.30
2019-01-17T06:00:16.359Z,2.07
2019-01-17T06:02:45.706Z,1.70
2019-01-17T06:05:15.325Z,2.97
2019-01-17T06:07:44.687Z,2.10
2019-01-17T06:10:14.274Z,1.97
2019-01-17T06:12:43.659Z,2.17
2019-01-17T06:15:13.932Z,2.17
2019-01-17T06:17:43.292Z,3.17
2019-01-17T06:20:14.135Z,2.77
2019-01-17T06:22:43.514Z,2.77
2019-01-17T06:25:13.104Z,2.70
2019-01-17T06:27:42.458Z,2.17
2019-01-17T06:30:12.721Z,2.47
2019-01-17T06:32:42.211Z,2.30
2019-01-17T06:35:11.618Z,2.40
2019-01-17T06:37:41.012Z,2.63
2019-01-17T06:40:31.778Z,2.67
2019-01-17T06:43:01.156Z,2.57
2019-01-17T06:45:30.519Z,2.33
2019-01-17T06:47:59.889Z,2.87
2019-01-17T06:50:29.263Z,2.93
2019-01-17T06:52:58.642Z,2.57
2019-01-17T06:55:34.285Z,2.90
2019-01-17T06:57:59.038Z,2.57
2019-01-17T07:00:28.407Z,2.83
2019-01-17T07:02:57.784Z,2.93
2019-01-17T07:05:27.159Z,2.13
2019-01-17T07:07:56.551Z,5.00
2019-01-17T07:10:25.911Z,2.93
2019-01-17T07:12:55.381Z,2.70
2019-01-17T07:15:24.702Z,3.87
2019-01-17T07:17:54.088Z,2.43
2019-01-17T07:20:23.457Z,4.40
2019-01-17T07:22:52.858Z,2.77
2019-01-17T07:25:22.218Z,2.57
2019-01-17T07:27:51.601Z,3.10
2019-01-17T07:30:22.686Z,3.23
2019-01-17T07:32:52.046Z,2.80
2019-01-17T07:35:21.412Z,2.93
2019-01-17T07:37:50.890Z,3.10
2019-01-17T07:40:20.250Z,2.60
2019-01-17T07:42:49.655Z,2.87
2019-01-17T07:45:21.724Z,3.60
2019-01-17T07:47:51.082Z,3.33
2019-01-17T07:50:20.467Z,2.80
2019-01-17T07:52:49.830Z,3.10
2019-01-17T07:55:19.250Z,3.40
2019-01-17T07:57:48.612Z,3.30
2019-01-17T08:00:19.819Z,3.17
2019-01-17T08:02:49.198Z,3.00
2019-01-17T08:05:18.595Z,3.43
2019-01-17T08:07:48.255Z,3.23
2019-01-17T08:10:18.608Z,3.27
2019-01-17T08:12:48.288Z,3.83
2019-01-17T08:15:17.814Z,2.30
2019-01-17T08:17:47.190Z,3.40
2019-01-17T08:20:19.095Z,2.80
2019-01-17T08:22:48.679Z,3.23
2019-01-17T08:25:18.066Z,3.17
2019-01-17T08:27:47.429Z,2.67
2019-01-17T08:30:19.136Z,3.10
2019-01-17T08:32:48.501Z,2.57
2019-01-17T08:35:18.494Z,2.40
2019-01-17T08:37:47.853Z,2.00
2019-01-17T08:40:34.251Z,2.30
2019-01-17T08:43:03.607Z,2.47
2019-01-17T08:45:32.982Z,2.80
2019-01-17T08:48:02.351Z,2.00
2019-01-17T08:50:31.896Z,1.63
2019-01-17T08:53:01.267Z,1.67
2019-01-17T08:55:33.244Z,1.20
2019-01-17T08:58:02.627Z,1.50
2019-01-17T09:00:34.448Z,1.27
2019-01-17T09:03:03.935Z,1.23
2019-01-17T09:05:33.292Z,0.97
2019-01-17T09:08:02.680Z,1.23
2019-01-17T09:10:32.199Z,1.00
2019-01-17T09:13:01.587Z,0.97
2019-01-17T09:15:35.296Z,1.30
2019-01-17T09:18:04.887Z,7.63
2019-01-17T09:20:34.275Z,1.87
2019-01-17T09:23:03.751Z,1.77
2019-01-17T09:25:33.839Z,1.57
2019-01-17T09:28:03.204Z,1.60
2019-01-17T09:30:32.559Z,1.70
2019-01-17T09:33:01.978Z,1.37
2019-01-17T09:35:31.305Z,1.73
2019-01-17T09:38:00.691Z,1.00
2019-01-17T09:40:30.059Z,1.37
2019-01-17T09:42:59.438Z,1.40
2019-01-17T09:45:28.841Z,1.40
2019-01-17T09:47:58.223Z,2.90
2019-01-17T09:50:27.686Z,1.90
2019-01-17T09:52:57.454Z,1.73
2019-01-17T09:55:26.827Z,1.93
2019-01-17T09:57:56.206Z,2.07
2019-01-17T10:00:30.428Z,1.93
2019-01-17T10:02:59.838Z,1.57
2019-01-17T10:05:29.286Z,1.53
2019-01-17T10:07:58.715Z,1.60
2019-01-17T10:10:28.650Z,1.97
2019-01-17T10:12:58.326Z,1.97
2019-01-17T10:15:48.531Z,1.33
2019-01-17T10:18:53.122Z,1.60
2019-01-17T10:22:05.331Z,2.03
2019-01-17T10:25:12.848Z,2.30
2019-01-17T10:28:41.635Z,2.30
2019-01-17T10:31:49.565Z,3.23
2019-01-17T10:34:41.797Z,1.87
2019-01-17T10:37:50.718Z,1.90
2019-01-17T10:41:14.933Z,1.97
2019-01-17T10:44:11.831Z,1.93
2019-01-17T10:47:03.487Z,1.67
2019-01-17T10:50:21.695Z,1.53
2019-01-17T10:53:15.401Z,2.00
2019-01-17T10:56:27.932Z,2.20
2019-01-17T10:59:13.094Z,1.33
2019-01-17T11:02:33.279Z,1.77
2019-01-17T11:05:27.017Z,2.70
2019-01-17T11:08:46.288Z,2.23
2019-01-17T11:11:56.804Z,2.40
2019-01-17T11:14:48.527Z,1.50
2019-01-17T11:17:57.902Z,2.60
2019-01-17T11:21:16.099Z,2.27
2019-01-17T11:24:19.590Z,7.93
2019-01-17T11:27:15.306Z,2.53
2019-01-17T11:30:16.300Z,5.20
2019-01-17T11:33:26.900Z,6.13
2019-01-17T11:36:25.587Z,3.40
2019-01-17T11:39:38.634Z,2.10
2019-01-17T11:43:04.171Z,2.67
2019-01-17T11:46:08.305Z,2.30
2019-01-17T11:49:17.170Z,1.63
2019-01-17T11:52:16.139Z,2.00
2019-01-17T11:55:47.486Z,2.17
2019-01-17T11:59:00.109Z,2.67
2019-01-17T12:02:00.746Z,1.90
2019-01-17T12:04:32.123Z,1.50
2019-01-17T12:07:07.450Z,1.40
2019-01-17T12:09:38.121Z,1.50
2019-01-17T12:12:07.599Z,1.83
2019-01-17T12:14:36.964Z,0.90
2019-01-17T12:17:06.350Z,1.90
2019-01-17T12:19:35.720Z,2.30
2019-01-17T12:22:05.418Z,1.90
2019-01-17T12:24:34.771Z,1.30
2019-01-17T12:27:04.343Z,1.30
2019-01-17T12:29:33.708Z,1.90
2019-01-17T12:32:03.061Z,1.80
2019-01-17T12:34:32.451Z,1.00
2019-01-17T12:37:01.811Z,1.33
2019-01-17T12:39:31.191Z,1.37
2019-01-17T12:42:00.551Z,1.27
2019-01-17T12:44:29.943Z,2.30
2019-01-17T12:46:59.303Z,1.70
2019-01-17T12:49:28.680Z,1.20
2019-01-17T12:51:58.044Z,1.10
2019-01-17T12:54:27.429Z,0.70
2019-01-17T12:56:56.778Z,1.10
2019-01-17T12:59:26.155Z,0.97
2019-01-17T13:01:55.523Z,1.00
2019-01-17T13:04:24.895Z,1.23
2019-01-17T13:06:54.255Z,0.80
2019-01-17T13:09:23.631Z,3.27
2019-01-17T13:11:53.020Z,1.20
2019-01-17T13:14:22.398Z,1.00
2019-01-17T13:16:51.758Z,0.90
2019-01-17T13:19:21.126Z,0.73
2019-01-17T13:21:51.531Z,0.97
2019-01-17T13:24:20.909Z,0.77
2019-01-17T13:26:51.610Z,0.87
2019-01-17T13:29:21.047Z,0.90
2019-01-17T13:31:50.395Z,1.10
2019-01-17T13:34:19.801Z,0.80
2019-01-17T13:36:49.134Z,2.60
2019-01-17T13:39:18.507Z,0.90
2019-01-17T13:41:47.913Z,0.80
2019-01-17T13:44:17.290Z,0.70
2019-01-17T13:46:46.652Z,0.80
2019-01-17T13:49:16.022Z,0.90
2019-01-17T13:51:45.443Z,0.70
2019-01-17T13:54:14.827Z,1.00
2019-01-17T13:56:44.494Z,0.70
2019-01-17T13:59:14.142Z,0.87
2019-01-17T14:01:43.680Z,0.70
2019-01-17T14:04:13.528Z,0.77
2019-01-17T14:06:43.110Z,0.63
2019-01-17T14:09:12.718Z,0.60
2019-01-17T14:11:42.257Z,0.77
2019-01-17T14:14:11.608Z,2.57
2019-01-17T14:16:41.205Z,1.00
2019-01-17T14:19:10.825Z,1.17
2019-01-17T14:21:40.430Z,0.90
2019-01-17T14:24:09.894Z,0.97
2019-01-17T14:26:39.251Z,0.93
2019-01-17T14:29:08.640Z,1.00
2019-01-17T14:31:38.004Z,1.00
2019-01-17T14:34:07.380Z,1.00
2019-01-17T14:36:36.735Z,1.23
2019-01-17T14:39:07.614Z,1.03
2019-01-17T14:41:36.972Z,1.10
2019-01-17T14:44:06.430Z,0.80
2019-01-17T14:46:35.870Z,0.93
2019-01-17T14:49:05.184Z,0.70
2019-01-17T14:51:34.585Z,0.70
2019-01-17T14:54:03.938Z,0.87
2019-01-17T14:56:33.329Z,0.90
2019-01-17T14:59:02.818Z,1.43
2019-01-17T15:01:32.205Z,1.60
2019-01-17T15:04:01.559Z,1.00
2019-01-17T15:06:30.959Z,1.17
2019-01-17T15:09:00.323Z,0.80
2019-01-17T15:11:29.779Z,0.97
2019-01-17T15:13:59.126Z,1.13
2019-01-17T15:16:28.502Z,0.77
2019-01-17T15:18:57.859Z,0.80
2019-01-17T15:21:27.267Z,1.00
2019-01-17T15:23:56.618Z,0.90
2019-01-17T15:26:26.003Z,1.03
2019-01-17T15:28:55.354Z,0.93
2019-01-17T15:31:24.730Z,0.93
2019-01-17T15:33:54.082Z,2.60
2019-01-17T15:36:23.459Z,0.93
2019-01-17T15:38:52.815Z,0.93
2019-01-17T15:41:28.360Z,0.97
2019-01-17T15:43:53.187Z,0.90
2019-01-17T15:46:22.559Z,0.90
2019-01-17T15:48:51.919Z,1.13
2019-01-17T15:51:21.289Z,1.03
2019-01-17T15:53:50.703Z,1.10
2019-01-17T15:56:20.084Z,1.30
2019-01-17T15:58:49.442Z,1.10
2019-01-17T16:01:18.860Z,1.47
2019-01-17T16:03:48.206Z,0.90
2019-01-17T16:06:17.582Z,1.20
2019-01-17T16:08:46.934Z,1.90
2019-01-17T16:11:16.287Z,2.20
2019-01-17T16:13:45.666Z,2.00
2019-01-17T16:16:15.019Z,2.20
2019-01-17T16:18:44.403Z,3.20
2019-01-17T16:21:13.774Z,2.80
2019-01-17T16:23:43.194Z,2.00
2019-01-17T16:26:12.551Z,1.30
2019-01-17T16:28:41.926Z,3.00
2019-01-17T16:31:11.283Z,1.50
2019-01-17T16:33:40.663Z,0.70
2019-01-17T16:36:10.020Z,0.60
2019-01-17T16:38:39.404Z,0.57
2019-01-17T16:41:08.754Z,0.50
2019-01-17T16:43:38.127Z,0.87
2019-01-17T16:46:07.487Z,0.93
2019-01-17T16:48:36.869Z,0.93
2019-01-17T16:51:06.240Z,0.87
2019-01-17T16:53:35.625Z,0.90
2019-01-17T16:56:05.004Z,0.80
2019-01-17T16:58:35.838Z,0.63
2019-01-17T17:01:05.342Z,0.67
2019-01-17T17:03:34.722Z,3.90
2019-01-17T17:06:04.677Z,2.10
2019-01-17T17:08:34.166Z,1.13
2019-01-17T17:11:03.523Z,0.93
2019-01-17T17:13:32.908Z,0.77
2019-01-17T17:16:02.262Z,0.80
2019-01-17T17:18:31.657Z,1.00
2019-01-17T17:21:01.020Z,2.00
2019-01-17T17:23:30.504Z,1.30
2019-01-17T17:25:59.823Z,1.80
2019-01-17T17:28:29.225Z,2.50
2019-01-17T17:30:58.575Z,2.17
2019-01-17T17:33:27.967Z,6.80
2019-01-17T17:35:57.319Z,2.50
2019-01-17T17:38:26.741Z,3.10
2019-01-17T17:40:56.099Z,3.50
2019-01-17T17:43:25.466Z,1.90
2019-01-17T17:45:54.855Z,7.53
2019-01-17T17:48:24.230Z,2.10
2019-01-17T17:50:53.632Z,1.80
2019-01-17T17:53:23.005Z,2.70
2019-01-17T17:55:53.723Z,2.50
2019-01-17T17:58:23.160Z,3.30
2019-01-17T18:00:55.352Z,2.93
2019-01-17T18:03:24.724Z,3.40
2019-01-17T18:05:54.126Z,2.33
2019-01-17T18:08:23.491Z,3.40
2019-01-17T18:10:52.874Z,4.17
2019-01-17T18:13:22.235Z,2.50
2019-01-17T18:15:51.615Z,2.37
2019-01-17T18:18:20.974Z,2.50
2019-01-17T18:20:50.383Z,5.60
2019-01-17T18:23:19.752Z,2.00
2019-01-17T18:25:49.130Z,2.43
2019-01-17T18:28:18.487Z,5.40
2019-01-17T18:30:47.868Z,4.53
2019-01-17T18:33:17.228Z,3.73
2019-01-17T18:35:46.623Z,4.23
2019-01-17T18:38:15.988Z,2.60
2019-01-17T18:40:45.400Z,2.70
2019-01-17T18:43:14.782Z,3.30
2019-01-17T18:45:44.430Z,4.60
2019-01-17T18:48:13.804Z,3.33
2019-01-17T18:50:43.211Z,3.30
2019-01-17T18:53:12.601Z,3.07
2019-01-17T18:55:41.964Z,3.70
2019-01-17T18:58:15.485Z,2.13
2019-01-17T19:00:42.352Z,2.37
2019-01-17T19:03:11.734Z,2.80
2019-01-17T19:05:41.090Z,7.30
2019-01-17T19:08:10.475Z,4.77
2019-01-17T19:10:39.835Z,3.43
2019-01-17T19:13:09.211Z,3.27
2019-01-17T19:15:38.606Z,2.50
2019-01-17T19:18:07.987Z,2.83
2019-01-17T19:20:37.369Z,2.50
2019-01-17T19:23:06.739Z,2.60
2019-01-17T19:25:36.094Z,3.90
2019-01-17T19:28:05.494Z,3.37
2019-01-17T19:30:34.851Z,2.83
2019-01-17T19:33:04.330Z,3.53
2019-01-17T19:35:33.687Z,3.60
2019-01-17T19:38:03.081Z,3.43
2019-01-17T19:40:32.438Z,4.43
2019-01-17T19:43:01.822Z,2.97
2019-01-17T19:45:31.194Z,3.43
2019-01-17T19:48:00.578Z,3.10
2019-01-17T19:50:35.122Z,2.57
2019-01-17T19:53:04.843Z,2.90
2019-01-17T19:55:34.191Z,2.80
2019-01-17T19:58:03.571Z,3.10
2019-01-17T20:00:32.924Z,2.80
2019-01-17T20:03:02.307Z,2.73
2019-01-17T20:05:32.790Z,2.47
2019-01-17T20:08:02.175Z,2.72
2019-01-17T20:10:33.463Z,2.57
2019-01-17T20:13:02.843Z,4.77
2019-01-17T20:15:32.306Z,3.70
2019-01-17T20:18:01.686Z,3.67
2019-01-17T20:20:32.103Z,3.10
2019-01-17T20:23:02.073Z,2.80
2019-01-17T20:25:31.463Z,2.77
2019-01-17T20:28:00.814Z,2.10
2019-01-17T20:30:34.630Z,2.13
2019-01-17T20:33:08.070Z,3.40
2019-01-17T20:35:37.450Z,3.90
2019-01-17T20:38:07.266Z,4.62
2019-01-17T20:40:36.650Z,3.50
2019-01-17T20:43:06.047Z,5.33
2019-01-17T20:45:35.418Z,2.87
2019-01-17T20:48:04.878Z,4.27
2019-01-17T20:50:34.892Z,5.23
2019-01-17T20:53:04.326Z,6.30
2019-01-17T20:55:33.643Z,4.47
2019-01-17T20:58:03.010Z,5.90
2019-01-17T21:00:39.818Z,5.10
2019-01-17T21:03:10.662Z,2.80
2019-01-17T21:05:40.067Z,5.55
2019-01-17T21:08:09.418Z,4.90
2019-01-17T21:10:38.799Z,3.60
2019-01-17T21:13:08.177Z,3.00
2019-01-17T21:15:37.558Z,2.42
2019-01-17T21:18:07.039Z,2.80
2019-01-17T21:20:36.466Z,4.97
2019-01-17T21:23:06.146Z,3.37
2019-01-17T21:25:35.532Z,2.60
2019-01-17T21:28:04.886Z,3.37
2019-01-17T21:30:34.271Z,2.47
2019-01-17T21:33:07.085Z,2.83
2019-01-17T21:35:34.663Z,2.30
2019-01-17T21:38:04.019Z,1.92
2019-01-17T21:40:33.610Z,1.93
2019-01-17T21:43:03.022Z,2.00
2019-01-17T21:45:32.414Z,2.10
2019-01-17T21:48:01.775Z,2.02
2019-01-17T21:50:31.278Z,2.42
2019-01-17T21:53:00.638Z,2.52
2019-01-17T21:55:30.024Z,2.65
2019-01-17T21:57:59.374Z,3.30
2019-01-17T22:00:28.737Z,2.05
2019-01-17T22:02:58.103Z,3.33
2019-01-17T22:05:27.382Z,4.33
2019-01-17T22:07:56.767Z,2.53
2019-01-17T22:10:26.129Z,2.83
2019-01-17T22:12:55.517Z,4.03
2019-01-17T22:15:25.216Z,1.97
2019-01-17T22:17:54.879Z,4.15
2019-01-17T22:20:24.234Z,7.30
2019-01-17T22:22:53.648Z,2.40
2019-01-17T22:25:22.997Z,2.00
2019-01-17T22:27:52.449Z,2.15
2019-01-17T22:30:23.654Z,1.53
2019-01-17T22:32:53.195Z,1.85
2019-01-17T22:35:22.613Z,1.90
2019-01-17T22:37:51.982Z,1.80
2019-01-17T22:40:21.317Z,2.73
2019-01-17T22:42:50.662Z,2.27
2019-01-17T22:45:22.390Z,2.77
2019-01-17T22:47:51.791Z,2.57
2019-01-17T22:50:21.167Z,2.52
2019-01-17T22:52:50.683Z,1.77
2019-01-17T22:55:20.091Z,1.60
2019-01-17T22:57:50.254Z,1.95
2019-01-17T23:01:06.802Z,1.63
2019-01-17T23:03:44.495Z,2.00
2019-01-17T23:06:13.874Z,3.37
2019-01-17T23:08:43.251Z,2.23
2019-01-17T23:11:12.610Z,2.02
2019-01-17T23:13:41.994Z,3.00
2019-01-17T23:16:11.420Z,2.72
2019-01-17T23:18:40.795Z,3.00
2019-01-17T23:21:10.177Z,2.98
2019-01-17T23:23:39.590Z,2.55
2019-01-17T23:26:08.953Z,2.75
2019-01-17T23:28:38.342Z,2.65
2019-01-17T23:31:07.835Z,3.00
2019-01-17T23:33:37.238Z,2.95
2019-01-17T23:36:06.723Z,4.00
2019-01-17T23:38:36.074Z,2.60
2019-01-17T23:41:05.454Z,2.67
2019-01-17T23:43:34.818Z,6.08
2019-01-17T23:46:04.216Z,3.17
2019-01-17T23:48:33.674Z,3.45
2019-01-17T23:51:03.010Z,3.40
2019-01-17T23:53:32.362Z,3.50
2019-01-17T23:56:01.747Z,3.27
2019-01-17T23:58:31.115Z,3.92
